CKR4 weather

Lundar Airport
Lundar, Manitoba, Canada

Public forecast

Using degrees Celsius for public forecast. Weather courtesy of forecast.io.

METAR (pilot weather report)

Closest report is Southport Airport, 48.8 nm (90.3 km) S. Retrieved 2019/07/23 18:00 UTC (56 minutes ago):

CYPG 231800Z 26008KT 12SM FEW050 BKN240 27/14 A3019 RMK CU1CI5 DA2342FT HZ SLP224

TAF (pilot weather forecast)

Closest forecast is Southport Airport, 48.8 nm (90.3 km) S. Retrieved 2019/07/23 18:33 UTC (23 minutes ago):

TAF CYPG 231730Z 2318/2406 27008KT P6SM FEW050 FEW240 BECMG 2322/2324 22008KT BECMG 2402/2404 VRB03KT RMK NXT FCST BY 240000Z